首页
METAR-TAF:

METAR-TAF

机场 :

Chièvres, 比利时

纬度: 50-34N, 经度: 003-50E, 海拔: 60米

当前天气观测

该预报发布于28分钟前的10:55 UTC
风速7节,风向
温度 5°C
湿度 81%
气压 1039 hPa
能见度10公里或以上

METAR: EBCV 191055Z AUTO 36007KT 9999 /// 05/02 Q1039 BLU

时间: 12:23 (11:23 UTC)

预报

该预报发布于2小时和42分钟前的08:41 UTC
预报有效从19日的 10点(UTC)到 19日的 19点(UTC)
风速7节,风向
能见度10公里或以上
少量云层高于1500英尺
散云层高于2500英尺
几率 40% :
短暂存在
从 19日的 07点(UTC)到 19日的 16点(UTC)
能見度: 6000
散云层高于1500英尺
多云层高于2500英尺
小阵雨, 小冰雹或雪球, 小阵雨

TAF: EBCV 190841Z 1910/1919 36007KT 9999 FEW015 SCT025 PROB40 TEMPO 1907/1916 6000 -SHRAGS -SHRA SCT015 BKN025 BY EBWM

超过4000个机场的气象观测和天气预报(METAR&TAF报告)。

可查询的气象台以黄色和红色小点在地图上表示。

将鼠标移到小点上方,可查看气象台名称。

然后点击查看天气观测和预报。

如需切换地图:点击带黑十字的绿色按钮放大地图;点击带横线的绿色按钮缩小地图;或者点击绿色箭头查看邻近地区的地图。


METAR-TAF: